createdAt,value
2018-06-10T00:02:04.319Z,19.9
2018-06-10T00:07:04.516Z,19.8
2018-06-10T00:12:04.577Z,19.8
2018-06-10T00:17:08.359Z,19.6
2018-06-10T00:22:04.458Z,19.4
2018-06-10T00:27:04.416Z,19.2
2018-06-10T00:32:04.505Z,19.2
2018-06-10T00:37:04.597Z,19.1
2018-06-10T00:42:04.345Z,19.1
2018-06-10T00:47:06.960Z,19.0
2018-06-10T00:52:04.430Z,18.9
2018-06-10T00:57:04.500Z,18.7
2018-06-10T01:02:04.855Z,18.7
2018-06-10T01:07:04.137Z,18.7
2018-06-10T01:12:04.625Z,18.7
2018-06-10T01:17:07.420Z,18.6
2018-06-10T01:22:04.410Z,18.5
2018-06-10T01:27:04.339Z,18.5
2018-06-10T01:32:04.908Z,18.6
2018-06-10T01:37:04.767Z,18.6
2018-06-10T01:42:04.640Z,18.6
2018-06-10T01:47:05.167Z,18.7
2018-06-10T01:52:04.068Z,18.8
2018-06-10T01:57:04.471Z,18.7
2018-06-10T02:02:04.557Z,18.7
2018-06-10T02:07:04.862Z,18.7
2018-06-10T02:12:04.684Z,18.6
2018-06-10T02:17:08.749Z,18.5
2018-06-10T02:22:03.978Z,18.2
2018-06-10T02:27:04.881Z,18.1
2018-06-10T02:32:04.206Z,18.2
2018-06-10T02:37:04.567Z,18.3
2018-06-10T02:42:04.077Z,18.4
2018-06-10T02:47:13.690Z,18.5
2018-06-10T02:52:03.834Z,18.5
2018-06-10T02:57:04.246Z,18.4
2018-06-10T03:02:17.385Z,18.5
2018-06-10T03:07:04.470Z,18.5
2018-06-10T03:12:03.919Z,18.5
2018-06-10T03:17:14.427Z,18.5
2018-06-10T03:22:04.289Z,18.5
2018-06-10T03:27:04.748Z,18.4
2018-06-10T03:32:17.432Z,18.2
2018-06-10T03:37:04.519Z,18.3
2018-06-10T03:42:04.192Z,18.3
2018-06-10T03:47:13.601Z,18.2
2018-06-10T03:52:04.308Z,18.2
2018-06-10T03:57:04.042Z,18.1
2018-06-10T04:02:16.606Z,18.1
2018-06-10T04:07:04.221Z,18.0
2018-06-10T04:12:04.538Z,18.1
2018-06-10T04:17:13.887Z,18.2
2018-06-10T04:22:04.755Z,18.2
2018-06-10T04:27:04.603Z,18.3
2018-06-10T04:32:11.950Z,18.4
2018-06-10T04:37:04.230Z,18.8
2018-06-10T04:42:04.261Z,18.8
2018-06-10T04:47:16.385Z,19.0
2018-06-10T04:52:04.415Z,19.0
2018-06-10T04:57:04.084Z,19.0
2018-06-10T05:02:11.634Z,19.0
2018-06-10T05:07:04.450Z,19.0
2018-06-10T05:12:04.278Z,19.1
2018-06-10T05:17:12.462Z,19.4
2018-06-10T05:22:04.723Z,19.3
2018-06-10T05:27:04.489Z,19.4
2018-06-10T05:32:11.688Z,19.2
2018-06-10T05:37:04.543Z,19.5
2018-06-10T05:42:04.232Z,19.9
2018-06-10T05:47:16.966Z,19.8
2018-06-10T05:52:04.341Z,20.1
2018-06-10T05:57:04.143Z,20.6
2018-06-10T06:02:14.609Z,20.9
2018-06-10T06:07:04.412Z,21.0
2018-06-10T06:12:04.299Z,21.2
2018-06-10T06:17:13.867Z,21.4
2018-06-10T06:22:04.591Z,21.7
2018-06-10T06:27:04.194Z,22.0
2018-06-10T06:32:17.153Z,22.2
2018-06-10T06:37:04.379Z,22.5
2018-06-10T06:42:04.271Z,22.9
2018-06-10T06:47:14.164Z,23.3
2018-06-10T06:52:04.150Z,23.5
2018-06-10T06:57:04.464Z,24.0
2018-06-10T07:02:13.673Z,24.0
2018-06-10T07:07:04.664Z,24.3
2018-06-10T07:12:04.683Z,24.5
2018-06-10T07:17:14.119Z,25.1
2018-06-10T07:22:04.322Z,25.0
2018-06-10T07:27:04.366Z,25.3
2018-06-10T07:32:13.610Z,25.9
2018-06-10T07:37:04.450Z,25.8
2018-06-10T07:42:04.196Z,26.1
2018-06-10T07:47:17.213Z,26.3
2018-06-10T07:52:04.306Z,26.3
2018-06-10T07:57:04.089Z,26.7
2018-06-10T08:02:14.185Z,27.1
2018-06-10T08:07:04.383Z,27.5
2018-06-10T08:12:04.409Z,27.7
2018-06-10T08:17:14.215Z,27.9
2018-06-10T08:22:04.892Z,27.9
2018-06-10T08:27:04.569Z,28.3
2018-06-10T08:32:13.907Z,29.1
2018-06-10T08:37:04.346Z,29.1
2018-06-10T08:42:04.266Z,29.7
2018-06-10T08:47:11.100Z,31.1
2018-06-10T08:52:04.193Z,31.1
2018-06-10T08:57:04.389Z,31.7
2018-06-10T09:02:16.334Z,32.0
2018-06-10T09:07:04.257Z,32.1
2018-06-10T09:12:04.688Z,32.3
2018-06-10T09:17:14.784Z,33.2
2018-06-10T09:22:04.477Z,33.1
2018-06-10T09:27:04.265Z,33.4
2018-06-10T09:32:13.726Z,33.5
2018-06-10T09:37:04.394Z,33.3
2018-06-10T09:42:04.499Z,32.9
2018-06-10T09:47:14.042Z,31.7
2018-06-10T09:52:04.095Z,31.7
2018-06-10T09:57:04.419Z,31.3
2018-06-10T10:02:13.759Z,30.5
2018-06-10T10:07:04.847Z,30.1
2018-06-10T10:12:04.499Z,30.7
2018-06-10T10:17:14.344Z,31.8
2018-06-10T10:22:04.091Z,32.5
2018-06-10T10:27:04.461Z,32.7
2018-06-10T10:32:13.568Z,33.1
2018-06-10T10:37:04.184Z,33.2
2018-06-10T10:42:04.355Z,33.4
2018-06-10T10:47:14.079Z,33.6
2018-06-10T10:52:04.536Z,33.7
2018-06-10T10:57:04.145Z,33.4
2018-06-10T11:02:14.291Z,33.3
2018-06-10T11:07:04.486Z,32.9
2018-06-10T11:12:04.326Z,33.0
2018-06-10T11:17:11.882Z,33.1
2018-06-10T11:22:04.382Z,33.1
2018-06-10T11:27:04.483Z,33.5
2018-06-10T11:32:11.083Z,33.7
2018-06-10T11:37:04.862Z,33.5
2018-06-10T11:42:04.182Z,33.5
2018-06-10T11:47:14.345Z,33.7
2018-06-10T11:52:04.344Z,33.0
2018-06-10T11:57:04.513Z,31.7
2018-06-10T12:02:13.584Z,30.9
2018-06-10T12:07:04.730Z,30.8
2018-06-10T12:12:04.559Z,31.2
2018-06-10T12:17:14.237Z,31.6
2018-06-10T12:22:04.830Z,32.4
2018-06-10T12:27:04.571Z,33.2
2018-06-10T12:32:17.983Z,34.2
2018-06-10T12:37:04.628Z,35.0
2018-06-10T12:42:04.440Z,35.8
2018-06-10T12:47:14.989Z,36.1
2018-06-10T12:52:04.161Z,36.2
2018-06-10T12:57:04.327Z,36.4
2018-06-10T13:02:16.323Z,36.9
2018-06-10T13:07:04.247Z,36.4
2018-06-10T13:12:04.421Z,35.7
2018-06-10T13:17:13.620Z,34.9
2018-06-10T13:22:04.679Z,34.5
2018-06-10T13:27:04.516Z,34.4
2018-06-10T13:32:14.408Z,35.1
2018-06-10T13:37:04.599Z,35.9
2018-06-10T13:42:04.275Z,36.1
2018-06-10T13:47:11.699Z,36.8
2018-06-10T13:52:04.516Z,37.8
2018-06-10T13:57:04.268Z,38.3
2018-06-10T14:02:14.167Z,37.8
2018-06-10T14:07:04.462Z,36.2
2018-06-10T14:12:04.311Z,35.5
2018-06-10T14:17:13.967Z,35.3
2018-06-10T14:22:04.217Z,34.6
2018-06-10T14:27:04.459Z,35.0
2018-06-10T14:32:13.742Z,35.8
2018-06-10T14:37:04.702Z,36.7
2018-06-10T14:42:04.207Z,36.9
2018-06-10T14:47:13.874Z,36.7
2018-06-10T14:52:04.396Z,33.0
2018-06-10T14:57:04.201Z,32.9
2018-06-10T15:02:15.379Z,32.4
2018-06-10T15:07:04.491Z,32.8
2018-06-10T15:12:04.316Z,32.8
2018-06-10T15:17:14.027Z,33.7
2018-06-10T15:22:04.685Z,35.2
2018-06-10T15:27:04.396Z,38.7
2018-06-10T15:32:13.813Z,37.3
2018-06-10T15:37:04.242Z,39.7
2018-06-10T15:42:04.300Z,43.4
2018-06-10T15:47:10.373Z,44.1
2018-06-10T15:52:04.346Z,49.6
2018-06-10T15:57:04.265Z,49.6
2018-06-10T16:02:11.694Z,51.9
2018-06-10T16:07:04.395Z,53.3
2018-06-10T16:12:04.706Z,54.4
2018-06-10T16:17:13.138Z,55.0
2018-06-10T16:22:04.603Z,54.9
2018-06-10T16:27:04.147Z,55.7
2018-06-10T16:32:13.520Z,54.3
2018-06-10T16:37:04.280Z,52.4
2018-06-10T16:42:04.183Z,52.3
2018-06-10T16:47:13.483Z,56.5
2018-06-10T16:52:04.370Z,56.7
2018-06-10T16:57:04.245Z,56.7
2018-06-10T17:02:11.746Z,56.7
2018-06-10T17:07:04.210Z,56.7
2018-06-10T17:12:04.542Z,56.6
2018-06-10T17:17:04.854Z,56.1
2018-06-10T17:22:04.454Z,55.9
2018-06-10T17:27:04.471Z,55.2
2018-06-10T17:32:04.650Z,47.9
2018-06-10T17:37:04.419Z,47.2
2018-06-10T17:42:04.379Z,47.0
2018-06-10T17:47:05.048Z,43.1
2018-06-10T17:52:04.917Z,41.0
2018-06-10T17:57:04.567Z,43.1
2018-06-10T18:02:16.609Z,43.5
2018-06-10T18:07:05.017Z,40.2
2018-06-10T18:12:04.768Z,37.7
2018-06-10T18:17:06.100Z,34.3
2018-06-10T18:22:04.658Z,34.2
2018-06-10T18:27:04.276Z,32.2
2018-06-10T18:32:14.302Z,32.2
2018-06-10T18:37:04.447Z,30.9
2018-06-10T18:42:04.429Z,30.8
2018-06-10T18:47:04.388Z,30.4
2018-06-10T18:52:04.518Z,29.9
2018-06-10T18:57:04.344Z,29.4
2018-06-10T19:02:12.221Z,28.9
2018-06-10T19:07:04.599Z,28.6
2018-06-10T19:12:04.462Z,28.2
2018-06-10T19:17:06.343Z,27.6
2018-06-10T19:22:04.817Z,27.1
2018-06-10T19:27:04.629Z,26.3
2018-06-10T19:32:04.564Z,26.2
2018-06-10T19:37:04.799Z,26.0
2018-06-10T19:42:04.517Z,25.9
2018-06-10T19:47:12.923Z,25.7
2018-06-10T19:52:04.378Z,25.6
2018-06-10T19:57:04.749Z,25.3
2018-06-10T20:02:13.739Z,25.2
2018-06-10T20:07:03.976Z,25.0
2018-06-10T20:12:04.355Z,24.8
2018-06-10T20:17:09.731Z,24.6
2018-06-10T20:22:04.455Z,24.3
2018-06-10T20:27:04.917Z,24.3
2018-06-10T20:32:04.665Z,24.0
2018-06-10T20:37:04.722Z,23.5
2018-06-10T20:42:04.165Z,23.4
2018-06-10T20:47:04.527Z,23.3
2018-06-10T20:52:04.755Z,23.3
2018-06-10T20:57:04.118Z,23.2
2018-06-10T21:02:04.694Z,23.1
2018-06-10T21:07:04.226Z,23.0
2018-06-10T21:12:04.709Z,22.9
2018-06-10T21:17:05.384Z,22.8
2018-06-10T21:22:04.817Z,22.8
2018-06-10T21:27:04.256Z,22.7
2018-06-10T21:32:05.144Z,22.5
2018-06-10T21:37:04.173Z,22.4
2018-06-10T21:42:04.388Z,22.4
2018-06-10T21:47:05.119Z,22.3
2018-06-10T21:52:04.152Z,22.2
2018-06-10T21:57:04.486Z,22.2
2018-06-10T22:02:04.322Z,22.1
2018-06-10T22:07:04.769Z,22.1
2018-06-10T22:12:04.107Z,22.0
2018-06-10T22:22:16.973Z,21.0
2018-06-10T22:27:16.390Z,21.0
2018-06-10T22:32:16.519Z,20.9
2018-06-10T22:37:16.767Z,20.9
2018-06-10T22:42:16.970Z,20.8
2018-06-10T22:47:17.201Z,20.9
2018-06-10T22:52:17.066Z,20.8
2018-06-10T22:57:17.139Z,20.6
2018-06-10T23:02:16.355Z,20.5
2018-06-10T23:07:16.521Z,20.5
2018-06-10T23:12:04.288Z,20.4
2018-06-10T23:17:07.184Z,20.4
2018-06-10T23:22:04.151Z,20.3
2018-06-10T23:27:04.821Z,20.3
2018-06-10T23:32:04.821Z,20.3
2018-06-10T23:37:04.566Z,20.2
2018-06-10T23:42:04.710Z,20.0
2018-06-10T23:47:04.770Z,20.1
2018-06-10T23:52:03.984Z,20.1
2018-06-10T23:57:04.813Z,20.1
